Finley, Washington
Current Conditions -  °F | °C
As of 5:53 AM on Thursday 23 Oct 2014 (Local Time) from KPSC Reporting Station
Overcast Overcast  
Wind Chill: 14°   Ceiling: 7000
Heat Index: 14°   Visibility: 10mi
Dew Point: 12°   Wind: 13mph
Humidity: 87%   Direction: 140°SE
Pressure: 29.77"   Gusts: NA
Location:  46.2117°N, 119.173°W
Report Text: KPSC 231253Z 14011KT 10SM OVC070 14/12 A2977 RMK AO2 RAE26 SLP079 P0000 T01440122
Loading
Personal Weather Stations






























Interactive Weather Map
Tropical Storm Tracking
New forecast layout! Learn more

10-Day Weather Forecast

Advertisements
Track Severe Weather on mobile